createdAt,value
2019-06-27T00:03:47.648Z,0.00
2019-06-27T00:08:47.573Z,0.00
2019-06-27T00:13:47.469Z,0.00
2019-06-27T00:18:47.430Z,0.00
2019-06-27T00:23:47.385Z,0.00
2019-06-27T00:28:47.305Z,0.00
2019-06-27T00:33:47.291Z,0.00
2019-06-27T00:38:47.238Z,0.00
2019-06-27T00:43:47.307Z,0.00
2019-06-27T00:49:29.488Z,0.00
2019-06-27T00:54:29.495Z,0.00
2019-06-27T00:59:29.476Z,0.00
2019-06-27T01:04:29.398Z,0.00
2019-06-27T01:09:29.344Z,0.00
2019-06-27T01:14:29.264Z,0.00
2019-06-27T01:19:29.337Z,0.00
2019-06-27T01:24:29.237Z,0.00
2019-06-27T01:29:29.162Z,0.00
2019-06-27T01:34:29.110Z,0.00
2019-06-27T01:39:29.052Z,0.00
2019-06-27T01:44:28.986Z,0.00
2019-06-27T01:49:28.924Z,0.00
2019-06-27T01:54:29.047Z,0.00
2019-06-27T01:59:29.058Z,0.00
2019-06-27T02:04:29.086Z,0.00
2019-06-27T02:09:29.069Z,0.00
2019-06-27T02:14:28.978Z,0.00
2019-06-27T02:19:28.730Z,0.00
2019-06-27T02:24:28.666Z,0.00
2019-06-27T02:29:28.853Z,0.00
2019-06-27T02:34:28.537Z,0.00
2019-06-27T02:39:28.550Z,4.00
2019-06-27T02:44:28.633Z,8.00
2019-06-27T02:49:28.370Z,8.00
2019-06-27T02:54:28.334Z,20.00
2019-06-27T02:59:28.322Z,32.00
2019-06-27T03:04:28.370Z,56.00
2019-06-27T03:09:28.238Z,100.00
2019-06-27T03:14:28.236Z,164.00
2019-06-27T03:19:28.194Z,260.00
2019-06-27T03:24:28.308Z,392.00
2019-06-27T03:29:28.153Z,568.00
2019-06-27T03:34:28.151Z,780.00
2019-06-27T03:39:28.164Z,1040.00
2019-06-27T03:44:27.942Z,1336.00
2019-06-27T03:49:27.903Z,1668.00
2019-06-27T03:54:27.737Z,1988.00
2019-06-27T03:59:27.828Z,2400.00
2019-06-27T04:04:27.799Z,2736.00
2019-06-27T04:09:27.612Z,3164.00
2019-06-27T04:14:27.722Z,3572.00
2019-06-27T04:19:27.747Z,4080.00
2019-06-27T04:24:27.417Z,4744.00
2019-06-27T04:29:33.372Z,5432.00
2019-06-27T04:34:28.462Z,6228.00
2019-06-27T04:39:27.221Z,7216.00
2019-06-27T04:44:27.185Z,7520.00
2019-06-27T04:49:27.147Z,8148.00
2019-06-27T04:54:27.088Z,8652.00
2019-06-27T04:59:27.060Z,8812.00
2019-06-27T05:04:27.058Z,8628.00
2019-06-27T05:09:27.009Z,8268.00
2019-06-27T05:14:26.910Z,8208.00
2019-06-27T05:19:26.914Z,7516.00
2019-06-27T05:24:26.818Z,8412.00
2019-06-27T05:29:26.746Z,8952.00
2019-06-27T05:34:26.714Z,10720.00
2019-06-27T05:39:26.644Z,10768.00
2019-06-27T05:44:26.836Z,12024.00
2019-06-27T05:49:26.563Z,10016.00
2019-06-27T05:54:26.511Z,9908.00
2019-06-27T05:59:26.442Z,11156.00
2019-06-27T06:04:26.424Z,11764.00
2019-06-27T06:09:26.373Z,13340.00
2019-06-27T06:14:26.313Z,14104.00
2019-06-27T06:19:26.280Z,16868.00
2019-06-27T06:24:26.224Z,17728.00
2019-06-27T06:29:26.186Z,25248.00
2019-06-27T06:34:26.149Z,39744.00
2019-06-27T06:39:26.052Z,30816.00
2019-06-27T06:44:26.032Z,19424.00
2019-06-27T06:49:26.010Z,27072.00
2019-06-27T06:54:25.929Z,28640.00
2019-06-27T06:59:25.930Z,26176.00
2019-06-27T07:04:25.877Z,31040.00
2019-06-27T07:09:25.877Z,28576.00
2019-06-27T07:14:27.140Z,28960.00
2019-06-27T07:19:25.766Z,40640.00
2019-06-27T07:24:25.649Z,31072.00
2019-06-27T07:29:25.628Z,33984.00
2019-06-27T07:34:25.581Z,50112.00
2019-06-27T07:39:25.669Z,47776.00
2019-06-27T07:44:25.704Z,44928.00
2019-06-27T16:28:49.434Z,53536.00
2019-06-27T16:33:49.398Z,49920.00
2019-06-27T16:38:49.361Z,50240.00
2019-06-27T16:43:49.337Z,42720.00
2019-06-27T16:48:49.274Z,48352.00
2019-06-27T16:53:49.258Z,43648.00
2019-06-27T16:58:49.332Z,38432.00
2019-06-27T17:03:49.146Z,19360.00
2019-06-27T17:08:49.075Z,23488.00
2019-06-27T17:13:49.366Z,38976.00
2019-06-27T17:18:49.004Z,35872.00
2019-06-27T17:23:48.955Z,28064.00
2019-06-27T17:28:48.902Z,23968.00
2019-06-27T17:33:48.847Z,24416.00
2019-06-27T17:38:48.828Z,23392.00
2019-06-27T17:43:48.755Z,25824.00
2019-06-27T17:48:48.736Z,24608.00
2019-06-27T17:53:48.754Z,28096.00
2019-06-27T17:58:48.619Z,21376.00
2019-06-27T18:03:48.820Z,31552.00
2019-06-27T18:08:48.625Z,29632.00
2019-06-27T18:13:48.779Z,6228.00
2019-06-27T18:18:48.493Z,5440.00
2019-06-27T18:23:48.415Z,5224.00
2019-06-27T18:28:48.361Z,5076.00
2019-06-27T18:33:48.306Z,4912.00
2019-06-27T18:38:48.256Z,4788.00
2019-06-27T18:43:48.231Z,4572.00
2019-06-27T18:48:51.025Z,5372.00
2019-06-27T18:53:48.120Z,4872.00
2019-06-27T18:58:48.034Z,4440.00
2019-06-27T19:03:47.974Z,3948.00
2019-06-27T19:08:47.989Z,3508.00
2019-06-27T19:13:47.868Z,3100.00
2019-06-27T19:18:47.843Z,2692.00
2019-06-27T19:23:47.799Z,2300.00
2019-06-27T19:28:47.726Z,1896.00
2019-06-27T19:33:47.695Z,1564.00
2019-06-27T19:38:47.636Z,1268.00
2019-06-27T19:43:47.567Z,992.00
2019-06-27T19:48:47.531Z,752.00
2019-06-27T19:53:47.484Z,544.00
2019-06-27T19:58:47.447Z,372.00
2019-06-27T20:03:47.362Z,244.00
2019-06-27T20:08:47.346Z,148.00
2019-06-27T20:13:47.310Z,88.00
2019-06-27T20:18:47.274Z,48.00
2019-06-27T20:23:47.168Z,28.00
2019-06-27T20:28:47.136Z,16.00
2019-06-27T20:33:47.047Z,8.00
2019-06-27T20:38:47.008Z,4.00
2019-06-27T20:43:46.957Z,4.00
2019-06-27T20:48:46.935Z,0.00
2019-06-27T20:53:46.852Z,0.00
2019-06-27T20:58:46.808Z,0.00
2019-06-27T21:03:46.808Z,0.00
2019-06-27T21:08:51.342Z,0.00
2019-06-27T21:13:47.647Z,0.00
2019-06-27T21:18:46.617Z,0.00
2019-06-27T21:23:46.556Z,0.00
2019-06-27T21:28:46.484Z,0.00
2019-06-27T21:33:46.471Z,0.00
2019-06-27T21:38:46.553Z,0.00
2019-06-27T21:43:46.428Z,0.00
2019-06-27T21:48:46.327Z,0.00
2019-06-27T21:53:46.313Z,0.00
2019-06-27T21:58:46.290Z,0.00
2019-06-27T22:03:46.903Z,0.00
2019-06-27T22:08:46.078Z,0.00
2019-06-27T22:13:46.114Z,0.00
2019-06-27T22:18:45.967Z,0.00
2019-06-27T22:23:45.940Z,0.00
2019-06-27T22:28:45.842Z,0.00
2019-06-27T22:33:45.878Z,0.00
2019-06-27T22:38:45.711Z,0.00
2019-06-27T22:43:45.791Z,0.00
2019-06-27T22:48:45.633Z,0.00
2019-06-27T22:53:45.659Z,0.00
2019-06-27T22:58:46.144Z,0.00
2019-06-27T23:03:45.559Z,0.00
2019-06-27T23:08:45.499Z,0.00
2019-06-27T23:13:45.488Z,0.00
2019-06-27T23:18:45.319Z,0.00
2019-06-27T23:23:45.342Z,0.00
2019-06-27T23:28:45.295Z,0.00
2019-06-27T23:33:45.285Z,0.00
2019-06-27T23:38:45.244Z,0.00
2019-06-27T23:43:45.156Z,0.00
2019-06-27T23:48:45.045Z,0.00
2019-06-27T23:53:44.988Z,0.00
2019-06-27T23:58:44.990Z,0.00
